Paris, Tennessee
Current Conditions -  °F | °C
As of 1:35 PM on Thursday 27 Nov 2014 (Local Time) from KPHT Reporting Station
Overcast Overcast  
Wind Chill: 22°   Ceiling: 2400
Heat Index: 30°   Visibility: 10mi
Dew Point: 21°   Wind: 9mph
Humidity: 69%   Direction: 330°NNW
Pressure: 30.46"   Gusts: NA
Location:  36.3°N, 88.32°W
Report Text: KPHT 271935Z AUTO 33008KT 10SM OVC024 M01/M06 A3046 RMK
Loading
Personal Weather Stations






























Interactive Weather Map New forecast layout! Learn more

10-Day Weather Forecast

Advertisements
Track Severe Weather on mobile